createdAt,value
2022-11-30T00:01:18.379Z,4.68
2022-11-30T00:03:45.045Z,4.69
2022-11-30T00:06:13.767Z,4.70
2022-11-30T00:08:40.732Z,4.72
2022-11-30T00:11:11.713Z,4.70
2022-11-30T00:13:38.385Z,4.73
2022-11-30T00:16:05.562Z,4.73
2022-11-30T00:18:32.692Z,4.69
2022-11-30T00:21:03.819Z,4.70
2022-11-30T00:23:34.645Z,4.76
2022-11-30T00:26:06.189Z,4.68
2022-11-30T00:28:34.301Z,4.68
2022-11-30T00:31:05.006Z,4.72
2022-11-30T00:33:36.255Z,4.71
2022-11-30T00:36:06.088Z,4.73
2022-11-30T00:38:33.496Z,4.65
2022-11-30T00:41:01.909Z,4.68
2022-11-30T00:43:29.120Z,4.63
2022-11-30T00:45:57.400Z,4.78
2022-11-30T00:48:24.224Z,4.61
2022-11-30T00:50:51.472Z,4.60
2022-11-30T00:53:18.863Z,4.55
2022-11-30T00:55:45.937Z,4.65
2022-11-30T00:58:13.098Z,4.71
2022-11-30T01:00:41.459Z,4.62
2022-11-30T01:03:08.623Z,4.52
2022-11-30T01:05:35.619Z,4.58
2022-11-30T01:08:03.224Z,4.52
2022-11-30T01:10:29.757Z,4.57
2022-11-30T01:12:56.182Z,4.52
2022-11-30T01:15:23.044Z,4.55
2022-11-30T01:17:49.549Z,4.51
2022-11-30T01:20:16.170Z,4.49
2022-11-30T01:22:42.776Z,4.47
2022-11-30T01:25:09.339Z,4.42
2022-11-30T01:27:35.862Z,4.44
2022-11-30T01:30:03.247Z,4.47
2022-11-30T01:32:29.713Z,4.49
2022-11-30T01:34:56.164Z,4.47
2022-11-30T01:37:23.091Z,4.44
2022-11-30T01:39:49.552Z,4.48
2022-11-30T01:42:19.651Z,4.47
2022-11-30T01:44:55.879Z,4.49
2022-11-30T01:47:27.212Z,4.57
2022-11-30T01:50:01.344Z,4.49
2022-11-30T01:52:35.324Z,4.48
2022-11-30T01:55:20.734Z,4.44
2022-11-30T01:58:05.268Z,4.40
2022-11-30T02:00:31.852Z,4.41
2022-11-30T02:03:23.290Z,4.45
2022-11-30T02:05:49.879Z,4.37
2022-11-30T02:08:17.477Z,4.34
2022-11-30T02:10:49.762Z,4.35
2022-11-30T02:13:44.551Z,4.39
2022-11-30T02:16:25.162Z,4.52
2022-11-30T02:19:03.948Z,4.47
2022-11-30T02:21:45.700Z,4.31
2022-11-30T02:24:20.713Z,4.47
2022-11-30T02:26:56.052Z,4.48
2022-11-30T02:29:53.016Z,4.39
2022-11-30T02:32:27.610Z,4.43
2022-11-30T02:34:56.877Z,4.38
2022-11-30T02:37:25.814Z,4.37
2022-11-30T02:39:52.259Z,4.40
2022-11-30T02:42:18.708Z,4.48
2022-11-30T02:44:48.560Z,4.42
2022-11-30T02:47:22.547Z,4.32
2022-11-30T02:50:01.181Z,4.35
2022-11-30T02:52:30.598Z,4.28
2022-11-30T02:55:02.395Z,4.38
2022-11-30T02:57:28.831Z,4.34
2022-11-30T02:59:56.260Z,4.34
2022-11-30T03:02:22.792Z,4.36
2022-11-30T03:04:49.384Z,4.37
2022-11-30T03:07:15.969Z,4.37
2022-11-30T03:09:43.551Z,4.30
2022-11-30T03:12:10.045Z,4.32
2022-11-30T03:14:36.508Z,4.30
2022-11-30T03:17:03.076Z,4.27
2022-11-30T03:19:29.705Z,4.31
2022-11-30T03:21:56.169Z,4.23
2022-11-30T03:24:22.666Z,4.20
2022-11-30T03:26:49.121Z,4.32
2022-11-30T03:29:15.624Z,4.19
2022-11-30T03:31:42.094Z,4.22
2022-11-30T03:34:08.709Z,4.19
2022-11-30T03:36:35.251Z,4.16
2022-11-30T03:39:02.443Z,4.17
2022-11-30T03:41:29.206Z,4.20
2022-11-30T03:43:56.063Z,4.20
2022-11-30T03:46:23.519Z,4.17
2022-11-30T03:48:50.039Z,4.20
2022-11-30T03:51:16.477Z,4.25
2022-11-30T03:53:42.984Z,4.16
2022-11-30T03:56:10.774Z,4.19
2022-11-30T03:58:38.204Z,4.13
2022-11-30T04:01:23.637Z,4.14
2022-11-30T04:03:51.640Z,4.16
2022-11-30T04:06:19.177Z,4.18
2022-11-30T04:08:45.922Z,4.26
2022-11-30T04:11:12.786Z,4.22
2022-11-30T04:13:40.226Z,4.23
2022-11-30T04:16:07.453Z,4.20
2022-11-30T04:18:35.883Z,4.15
2022-11-30T04:21:03.769Z,4.13
2022-11-30T04:23:33.602Z,4.21
2022-11-30T04:26:04.227Z,4.14
2022-11-30T04:28:31.044Z,4.15
2022-11-30T04:31:00.371Z,4.24
2022-11-30T04:33:28.324Z,4.17
2022-11-30T04:35:57.616Z,4.10
2022-11-30T04:38:25.428Z,4.17
2022-11-30T04:40:52.252Z,4.11
2022-11-30T04:43:18.904Z,4.21
2022-11-30T04:45:46.204Z,4.21
2022-11-30T04:48:13.444Z,4.17
2022-11-30T04:50:40.089Z,4.12
2022-11-30T04:53:07.285Z,4.18
2022-11-30T04:55:33.897Z,4.19
2022-11-30T04:58:00.635Z,4.08
2022-11-30T05:00:27.463Z,4.09
2022-11-30T05:02:56.550Z,4.06
2022-11-30T05:05:23.307Z,4.11
2022-11-30T05:07:59.778Z,4.12
2022-11-30T05:10:28.123Z,4.14
2022-11-30T05:12:57.258Z,4.10
2022-11-30T05:15:23.748Z,4.09
2022-11-30T05:17:50.251Z,4.05
2022-11-30T05:20:16.855Z,4.05
2022-11-30T05:22:43.468Z,4.13
2022-11-30T05:25:10.483Z,4.07
2022-11-30T05:27:37.484Z,4.15
2022-11-30T05:30:05.165Z,4.16
2022-11-30T05:32:31.630Z,4.13
2022-11-30T05:34:58.773Z,4.16
2022-11-30T05:37:25.742Z,4.10
2022-11-30T05:39:52.186Z,4.05
2022-11-30T05:42:18.658Z,4.05
2022-11-30T05:44:45.729Z,4.05
2022-11-30T05:47:12.525Z,4.07
2022-11-30T05:49:39.109Z,4.18
2022-11-30T05:52:05.565Z,4.01
2022-11-30T05:54:33.865Z,4.06
2022-11-30T05:57:00.568Z,4.01
2022-11-30T05:59:27.129Z,4.11
2022-11-30T06:01:54.329Z,4.06
2022-11-30T06:04:21.705Z,4.12
2022-11-30T06:06:49.502Z,4.12
2022-11-30T06:09:16.854Z,4.10
2022-11-30T06:11:43.401Z,4.04
2022-11-30T06:14:09.939Z,4.12
2022-11-30T06:16:39.422Z,4.10
2022-11-30T06:19:06.069Z,4.13
2022-11-30T06:21:32.712Z,4.10
2022-11-30T06:23:59.218Z,3.99
2022-11-30T06:26:26.164Z,4.05
2022-11-30T06:28:52.614Z,3.99
2022-11-30T06:31:19.168Z,4.04
2022-11-30T06:33:45.642Z,4.05
2022-11-30T06:36:12.281Z,4.09
2022-11-30T06:38:38.784Z,4.04
2022-11-30T06:41:07.566Z,4.05
2022-11-30T06:43:35.854Z,4.03
2022-11-30T06:46:03.626Z,4.03
2022-11-30T06:48:30.763Z,4.02
2022-11-30T06:50:58.528Z,4.01
2022-11-30T06:53:25.303Z,4.01
2022-11-30T06:55:52.211Z,4.01
2022-11-30T06:58:19.229Z,4.00
2022-11-30T07:00:45.806Z,3.96
2022-11-30T07:03:12.863Z,4.02
2022-11-30T07:05:42.882Z,4.02
2022-11-30T07:08:10.210Z,4.04
2022-11-30T07:10:41.152Z,4.05
2022-11-30T07:13:10.703Z,4.08
2022-11-30T07:15:37.954Z,4.09
2022-11-30T07:18:04.427Z,4.10
2022-11-30T07:20:31.027Z,4.02
2022-11-30T07:22:57.756Z,4.01
2022-11-30T07:25:43.527Z,4.06
2022-11-30T07:28:09.972Z,4.00
2022-11-30T07:30:36.471Z,4.11
2022-11-30T07:33:02.909Z,4.14
2022-11-30T07:35:29.412Z,4.08
2022-11-30T07:37:55.998Z,4.14
2022-11-30T07:40:22.420Z,4.11
2022-11-30T07:42:55.309Z,3.99
2022-11-30T07:45:21.760Z,4.07
2022-11-30T07:47:48.210Z,4.08
2022-11-30T07:50:14.639Z,4.02
2022-11-30T07:52:41.115Z,4.07
2022-11-30T07:55:08.144Z,4.03
2022-11-30T07:57:34.569Z,4.01
2022-11-30T08:00:01.083Z,4.01
2022-11-30T08:02:27.927Z,4.09
2022-11-30T08:04:57.861Z,4.06
2022-11-30T08:07:24.436Z,4.07
2022-11-30T08:09:51.503Z,4.03
2022-11-30T08:12:17.936Z,4.04
2022-11-30T08:15:18.193Z,4.00
2022-11-30T08:17:31.981Z,3.95
2022-11-30T08:19:58.647Z,4.00
2022-11-30T08:22:25.185Z,4.10
2022-11-30T08:24:51.817Z,4.08
2022-11-30T08:27:18.461Z,4.07
2022-11-30T08:29:44.982Z,4.05
2022-11-30T08:32:11.428Z,4.12
2022-11-30T08:34:37.866Z,4.13
2022-11-30T08:37:04.434Z,4.11
2022-11-30T08:39:34.049Z,4.09
2022-11-30T08:42:01.968Z,4.14
2022-11-30T08:44:29.678Z,4.11
2022-11-30T08:46:56.374Z,4.12
2022-11-30T08:49:24.464Z,4.17
2022-11-30T08:54:44.737Z,4.20
2022-11-30T08:57:11.284Z,4.16
2022-11-30T08:59:38.112Z,4.11
2022-11-30T09:02:04.620Z,4.19
2022-11-30T09:04:31.344Z,4.19
2022-11-30T09:06:59.358Z,4.15
2022-11-30T09:09:26.450Z,4.20
2022-11-30T09:11:52.950Z,4.20
2022-11-30T09:14:19.411Z,4.22
2022-11-30T09:16:45.875Z,4.22
2022-11-30T09:19:12.415Z,4.20
2022-11-30T09:21:39.016Z,4.16
2022-11-30T09:24:05.724Z,4.29
2022-11-30T09:26:32.344Z,4.24
2022-11-30T09:28:58.855Z,4.20
2022-11-30T09:31:26.923Z,4.34
2022-11-30T09:33:56.117Z,4.28
2022-11-30T09:36:27.037Z,4.25
2022-11-30T09:38:54.579Z,4.33
2022-11-30T09:41:57.492Z,4.35
2022-11-30T09:44:35.596Z,4.26
2022-11-30T09:47:08.083Z,4.32
2022-11-30T09:49:39.427Z,4.24
2022-11-30T09:52:13.253Z,4.32
2022-11-30T09:54:43.086Z,4.28
2022-11-30T09:57:32.174Z,4.34
2022-11-30T10:00:06.182Z,4.32
2022-11-30T10:02:39.449Z,4.24
2022-11-30T10:05:14.715Z,4.30
2022-11-30T10:08:12.324Z,4.34
2022-11-30T10:10:45.037Z,4.35
2022-11-30T10:13:36.001Z,4.29
2022-11-30T10:16:02.867Z,4.26
2022-11-30T10:18:41.655Z,4.38
2022-11-30T10:21:26.939Z,4.32
2022-11-30T10:24:26.511Z,4.47
2022-11-30T10:26:55.410Z,4.52
2022-11-30T10:29:30.142Z,4.49
2022-11-30T10:32:01.179Z,4.48
2022-11-30T10:34:36.039Z,4.40
2022-11-30T10:37:14.851Z,4.47
2022-11-30T10:39:58.860Z,4.47
2022-11-30T10:42:35.092Z,4.47
2022-11-30T10:45:10.425Z,4.47
2022-11-30T10:47:43.325Z,4.49
2022-11-30T10:50:14.977Z,4.48
2022-11-30T10:52:51.254Z,4.50
2022-11-30T10:55:21.322Z,4.58
2022-11-30T10:57:50.972Z,4.53
2022-11-30T11:00:18.249Z,4.58
2022-11-30T11:02:47.875Z,4.54
2022-11-30T11:05:23.787Z,4.70
2022-11-30T11:08:17.850Z,4.63
2022-11-30T11:10:52.193Z,4.55
2022-11-30T11:13:40.654Z,4.63
2022-11-30T11:16:13.160Z,4.55
2022-11-30T11:18:53.942Z,4.52
2022-11-30T11:21:22.600Z,4.59
2022-11-30T11:23:52.640Z,4.58
2022-11-30T11:26:30.310Z,4.77
2022-11-30T11:29:00.886Z,4.72
2022-11-30T11:31:35.121Z,4.76
2022-11-30T11:34:05.621Z,4.77
2022-11-30T11:36:34.027Z,4.71
2022-11-30T11:39:00.988Z,4.62
2022-11-30T11:41:29.211Z,4.69
2022-11-30T11:44:06.213Z,4.75
2022-11-30T11:46:36.357Z,4.72
2022-11-30T11:49:05.008Z,4.62
2022-11-30T11:51:31.764Z,4.70
2022-11-30T11:54:07.230Z,4.74
2022-11-30T11:56:36.755Z,4.69
2022-11-30T11:59:09.304Z,4.68
2022-11-30T12:02:02.101Z,4.73
2022-11-30T12:05:11.296Z,4.82
2022-11-30T12:07:37.797Z,4.77
2022-11-30T12:10:50.561Z,4.77
2022-11-30T12:13:33.165Z,4.80
2022-11-30T12:16:26.027Z,4.71
2022-11-30T12:19:17.440Z,4.80
2022-11-30T12:21:46.916Z,4.74
2022-11-30T12:24:16.159Z,4.77
2022-11-30T12:27:07.375Z,4.83
2022-11-30T12:29:52.864Z,4.85
2022-11-30T12:32:47.279Z,4.77
2022-11-30T12:35:33.372Z,4.75
2022-11-30T12:38:41.561Z,4.80
2022-11-30T12:41:13.937Z,4.74
2022-11-30T12:43:55.712Z,4.80
2022-11-30T12:46:40.247Z,4.99
2022-11-30T12:49:26.619Z,4.94
2022-11-30T12:52:35.177Z,4.94
2022-11-30T12:55:20.642Z,4.85
2022-11-30T12:58:19.240Z,4.90
2022-11-30T13:00:59.307Z,4.95
2022-11-30T13:03:29.096Z,4.91
2022-11-30T13:06:05.653Z,4.92
2022-11-30T13:08:49.123Z,4.93
2022-11-30T13:11:21.587Z,4.97
2022-11-30T13:13:52.482Z,4.90
2022-11-30T13:16:22.195Z,5.05
2022-11-30T13:18:51.367Z,5.01
2022-11-30T13:21:28.862Z,5.02
2022-11-30T13:24:08.637Z,4.87
2022-11-30T13:26:55.861Z,4.82
2022-11-30T13:29:40.853Z,4.97
2022-11-30T13:32:41.067Z,4.80
2022-11-30T13:35:29.394Z,4.78
2022-11-30T13:38:34.679Z,4.79
2022-11-30T13:40:59.478Z,4.73
2022-11-30T13:43:29.085Z,4.86
2022-11-30T13:46:05.936Z,4.90
2022-11-30T13:48:37.662Z,4.87
2022-11-30T13:51:05.051Z,4.78
2022-11-30T13:53:38.627Z,4.91
2022-11-30T13:56:17.390Z,4.91
2022-11-30T13:59:22.660Z,4.67
2022-11-30T14:01:50.165Z,4.70
2022-11-30T14:04:31.534Z,4.68
2022-11-30T14:07:00.712Z,4.91
2022-11-30T14:09:42.947Z,4.80
2022-11-30T14:12:31.466Z,4.80
2022-11-30T14:15:04.058Z,4.70
2022-11-30T14:17:33.914Z,4.71
2022-11-30T14:20:37.761Z,4.77
2022-11-30T14:23:07.423Z,4.75
2022-11-30T14:25:35.470Z,4.78
2022-11-30T14:28:05.669Z,4.72
2022-11-30T14:30:33.951Z,4.71
2022-11-30T14:33:06.514Z,4.78
2022-11-30T14:35:33.587Z,4.70
2022-11-30T14:38:01.099Z,4.72
2022-11-30T14:40:30.589Z,4.76
2022-11-30T14:43:02.990Z,4.76
2022-11-30T14:45:32.041Z,4.71
2022-11-30T14:48:06.374Z,4.66
2022-11-30T14:50:33.530Z,4.64
2022-11-30T14:53:26.793Z,4.60
2022-11-30T14:56:12.143Z,4.58
2022-11-30T14:58:52.559Z,4.52
2022-11-30T15:01:21.952Z,4.55
2022-11-30T15:03:51.345Z,4.51
2022-11-30T15:06:19.960Z,4.63
2022-11-30T15:08:53.765Z,4.59
2022-11-30T15:11:21.577Z,4.55
2022-11-30T15:13:50.962Z,4.61
2022-11-30T15:16:30.579Z,4.60
2022-11-30T15:18:58.958Z,4.52
2022-11-30T15:21:30.542Z,4.52
2022-11-30T15:24:00.000Z,4.52
2022-11-30T15:26:33.360Z,4.56
2022-11-30T15:29:16.794Z,4.55
2022-11-30T15:31:48.279Z,4.54
2022-11-30T15:34:21.235Z,4.44
2022-11-30T15:36:48.315Z,4.33
2022-11-30T15:39:22.453Z,4.35
2022-11-30T15:42:00.259Z,4.34
2022-11-30T15:44:37.979Z,4.47
2022-11-30T15:47:08.026Z,4.52
2022-11-30T15:49:36.299Z,4.54
2022-11-30T15:52:04.721Z,4.55
2022-11-30T15:54:53.936Z,4.51
2022-11-30T15:57:21.718Z,4.54
2022-11-30T16:00:19.054Z,4.54
2022-11-30T16:02:45.698Z,4.44
2022-11-30T16:05:14.465Z,4.43
2022-11-30T16:07:59.872Z,4.43
2022-11-30T16:10:35.612Z,4.41
2022-11-30T16:13:02.469Z,4.49
2022-11-30T16:15:31.700Z,4.40
2022-11-30T16:18:18.860Z,4.35
2022-11-30T16:20:48.145Z,4.33
2022-11-30T16:23:15.720Z,4.38
2022-11-30T16:25:43.306Z,4.31
2022-11-30T16:28:11.294Z,4.38
2022-11-30T16:30:38.410Z,4.42
2022-11-30T16:33:05.329Z,4.40
2022-11-30T16:35:42.096Z,4.36
2022-11-30T16:38:08.687Z,4.33
2022-11-30T16:40:38.847Z,4.38
2022-11-30T16:43:06.040Z,4.39
2022-11-30T16:45:37.896Z,4.33
2022-11-30T16:48:05.359Z,4.30
2022-11-30T16:50:34.563Z,4.37
2022-11-30T16:53:03.140Z,4.29
2022-11-30T16:55:34.590Z,4.37
2022-11-30T16:58:01.870Z,4.46
2022-11-30T17:00:28.961Z,4.41
2022-11-30T17:03:05.057Z,4.34
2022-11-30T17:05:32.370Z,4.36
2022-11-30T17:07:59.255Z,4.41
2022-11-30T17:10:26.440Z,4.27
2022-11-30T17:12:52.952Z,4.20
2022-11-30T17:15:23.496Z,4.38
2022-11-30T17:17:50.377Z,4.36
2022-11-30T17:20:17.784Z,4.36
2022-11-30T17:22:44.648Z,4.22
2022-11-30T17:25:17.386Z,4.31
2022-11-30T17:27:44.528Z,4.33
2022-11-30T17:30:13.576Z,4.25
2022-11-30T17:32:40.094Z,4.29
2022-11-30T17:35:08.152Z,4.26
2022-11-30T17:37:35.121Z,4.32
2022-11-30T17:40:04.049Z,4.29
2022-11-30T17:42:31.261Z,4.29
2022-11-30T17:44:57.852Z,4.31
2022-11-30T17:47:24.430Z,4.21
2022-11-30T17:49:51.432Z,4.29
2022-11-30T17:52:18.242Z,4.22
2022-11-30T17:54:44.742Z,4.28
2022-11-30T17:57:11.254Z,4.20
2022-11-30T17:59:37.719Z,4.19
2022-11-30T18:02:04.267Z,4.27
2022-11-30T18:04:30.940Z,4.22
2022-11-30T18:06:57.497Z,4.11
2022-11-30T18:09:24.300Z,4.19
2022-11-30T18:11:50.769Z,4.13
2022-11-30T18:14:17.256Z,4.20
2022-11-30T18:16:43.828Z,4.18
2022-11-30T18:19:14.890Z,4.15
2022-11-30T18:21:44.126Z,4.15
2022-11-30T18:24:12.039Z,4.13
2022-11-30T18:26:39.029Z,4.18
2022-11-30T18:29:06.175Z,4.18
2022-11-30T18:31:32.728Z,4.24
2022-11-30T18:34:05.003Z,4.22
2022-11-30T18:36:33.252Z,4.26
2022-11-30T18:39:00.656Z,4.18
2022-11-30T18:41:28.608Z,4.19
2022-11-30T18:43:55.323Z,4.19
2022-11-30T18:46:22.152Z,4.14
2022-11-30T18:48:50.575Z,4.24
2022-11-30T18:51:23.344Z,4.15
2022-11-30T18:53:57.422Z,4.18
2022-11-30T18:56:28.176Z,4.15
2022-11-30T18:58:56.683Z,4.19
2022-11-30T19:01:24.147Z,4.20
2022-11-30T19:04:02.494Z,4.15
2022-11-30T19:06:29.981Z,4.23
2022-11-30T19:08:57.145Z,4.11
2022-11-30T19:11:23.688Z,4.23
2022-11-30T19:13:54.987Z,4.24
2022-11-30T19:16:22.014Z,4.18
2022-11-30T19:18:48.756Z,4.12
2022-11-30T19:21:17.126Z,4.21
2022-11-30T19:23:44.807Z,4.17
2022-11-30T19:26:12.012Z,4.11
2022-11-30T19:28:39.658Z,4.12
2022-11-30T19:31:17.783Z,4.18
2022-11-30T19:33:46.849Z,4.13
2022-11-30T19:36:16.376Z,4.10
2022-11-30T19:38:42.911Z,4.15
2022-11-30T19:41:11.334Z,4.30
2022-11-30T19:43:38.219Z,4.16
2022-11-30T19:46:05.895Z,4.11
2022-11-30T19:48:33.568Z,4.16
2022-11-30T19:51:03.634Z,4.15
2022-11-30T19:53:32.120Z,4.16
2022-11-30T19:55:58.791Z,4.13
2022-11-30T19:58:25.310Z,4.07
2022-11-30T20:00:51.745Z,4.07
2022-11-30T20:03:18.757Z,4.20
2022-11-30T20:05:49.747Z,4.19
2022-11-30T20:08:16.741Z,4.14
2022-11-30T20:10:43.216Z,4.21
2022-11-30T20:13:09.709Z,4.19
2022-11-30T20:15:39.690Z,4.19
2022-11-30T20:18:07.422Z,4.08
2022-11-30T20:20:34.833Z,4.07
2022-11-30T20:23:04.651Z,4.16
2022-11-30T20:25:32.896Z,4.20
2022-11-30T20:28:00.169Z,4.07
2022-11-30T20:30:27.311Z,4.12
2022-11-30T20:32:53.851Z,4.13
2022-11-30T20:35:20.317Z,4.16
2022-11-30T20:37:46.884Z,4.13
2022-11-30T20:40:13.540Z,4.07
2022-11-30T20:42:39.989Z,4.08
2022-11-30T20:45:07.319Z,4.09
2022-11-30T20:47:36.581Z,4.11
2022-11-30T20:50:04.934Z,4.14
2022-11-30T20:52:31.516Z,4.04
2022-11-30T20:54:57.987Z,4.06
2022-11-30T20:57:24.647Z,4.07
2022-11-30T20:59:51.078Z,4.02
2022-11-30T21:02:17.705Z,4.01
2022-11-30T21:04:44.236Z,4.07
2022-11-30T21:07:10.682Z,4.07
2022-11-30T21:09:37.193Z,3.96
2022-11-30T21:12:03.933Z,4.06
2022-11-30T21:14:30.468Z,4.06
2022-11-30T21:16:57.024Z,3.99
2022-11-30T21:19:23.564Z,4.04
2022-11-30T21:21:50.120Z,4.09
2022-11-30T21:24:16.581Z,4.02
2022-11-30T21:26:43.856Z,4.02
2022-11-30T21:29:12.994Z,3.95
2022-11-30T21:31:39.838Z,4.01
2022-11-30T21:34:06.575Z,4.00
2022-11-30T21:36:33.232Z,3.96
2022-11-30T21:39:05.953Z,3.98
2022-11-30T21:41:39.365Z,4.07
2022-11-30T21:44:07.968Z,4.15
2022-11-30T21:46:34.641Z,4.05
2022-11-30T21:49:02.216Z,3.94
2022-11-30T21:51:31.956Z,3.94
2022-11-30T21:54:04.932Z,3.95
2022-11-30T21:56:34.270Z,3.93
2022-11-30T21:59:03.356Z,3.90
2022-11-30T22:01:37.315Z,3.94
2022-11-30T22:04:06.229Z,3.86
2022-11-30T22:06:34.917Z,3.92
2022-11-30T22:09:07.787Z,3.99
2022-11-30T22:11:40.635Z,3.92
2022-11-30T22:14:11.802Z,3.96
2022-11-30T22:16:38.696Z,3.97
2022-11-30T22:19:06.639Z,3.97
2022-11-30T22:21:34.256Z,4.05
2022-11-30T22:24:10.410Z,3.94
2022-11-30T22:26:39.367Z,3.97
2022-11-30T22:29:15.327Z,4.02
2022-11-30T22:31:44.292Z,3.97
2022-11-30T22:34:11.436Z,3.98
2022-11-30T22:36:39.819Z,3.94
2022-11-30T22:39:12.338Z,3.88
2022-11-30T22:41:40.589Z,3.98
2022-11-30T22:44:07.242Z,3.91
2022-11-30T22:46:35.489Z,3.92
2022-11-30T22:49:04.211Z,3.90
2022-11-30T22:51:32.415Z,3.95
2022-11-30T22:54:00.155Z,4.03
2022-11-30T22:56:32.122Z,3.88
2022-11-30T22:59:00.895Z,3.88
2022-11-30T23:01:29.285Z,3.91
2022-11-30T23:04:01.055Z,3.88
2022-11-30T23:06:27.775Z,3.85
2022-11-30T23:08:54.332Z,3.90
2022-11-30T23:11:24.009Z,3.88
2022-11-30T23:13:51.461Z,3.87
2022-11-30T23:16:18.499Z,3.81
2022-11-30T23:18:50.715Z,3.81
2022-11-30T23:21:20.960Z,3.87
2022-11-30T23:23:47.656Z,3.78
2022-11-30T23:26:15.527Z,3.72
2022-11-30T23:28:44.088Z,3.74
2022-11-30T23:31:33.716Z,3.73
2022-11-30T23:33:59.994Z,3.82
2022-11-30T23:36:26.631Z,3.73
2022-11-30T23:38:58.704Z,3.76
2022-11-30T23:41:25.644Z,3.74
2022-11-30T23:43:52.705Z,3.78
2022-11-30T23:46:19.419Z,3.81
2022-11-30T23:48:45.968Z,3.84
2022-11-30T23:51:12.421Z,3.78
2022-11-30T23:53:38.978Z,3.76
2022-11-30T23:56:11.540Z,3.72
2022-11-30T23:58:39.567Z,3.76
